Time;durP1;ratioP1;P1;durP2;ratioP2;P2;SDS_P1;SDS_P2;PMS_P1;PMS_P2;Temp;Humidity;BMP_temperature;BMP_pressure;BME280_temperature;BME280_humidity;BME280_pressure;Samples;Min_cycle;Max_cycle;Signal;HPM_P1;HPM_P2
2021/04/21 00:00:50;;;;;;;;;;;5.20;96.40;;;;;;5010073;28;20248;-68
2021/04/21 00:03:16;;;;;;;;;;;5.20;96.40;;;;;;5017124;28;19959;-68
2021/04/21 00:05:42;;;;;;;;;;;5.20;96.10;;;;;;5014458;28;20003;-70
2021/04/21 00:08:08;;;;;;;;;;;5.10;96.20;;;;;;4994834;28;19928;-69
2021/04/21 00:10:33;;;;;;;;;;;5.20;96.50;;;;;;5011400;28;19924;-69
2021/04/21 00:12:59;;;;;;;;;;;5.20;96.40;;;;;;5010541;28;19921;-69
2021/04/21 00:15:25;;;;;;;;;;;5.30;96.50;;;;;;5011460;28;19925;-71
2021/04/21 00:17:57;;;;;;;;;;;5.30;96.40;;;;;;5020212;28;20581;-69
2021/04/21 00:20:24;;;;;;;;;;;5.30;96.40;;;;;;5014123;28;19928;-69
2021/04/21 00:22:54;;;;;;;;;;;5.30;96.40;;;;;;5017318;28;19925;-70
2021/04/21 00:25:20;;;;;;;;;;;5.30;96.40;;;;;;5001086;28;19921;-70
2021/04/21 00:27:46;;;;;;;;;;;5.30;96.30;;;;;;5007412;28;20337;-70
2021/04/21 00:30:12;;;;;;;;;;;5.30;96.30;;;;;;5012757;28;19917;-70
2021/04/21 00:32:43;;;;;;;;;;;5.30;96.40;;;;;;5009207;28;19913;-69
2021/04/21 00:35:09;;;;;;;;;;;5.30;96.50;;;;;;5013085;28;20536;-69
2021/04/21 00:37:35;;;;;;;;;;;5.40;96.50;;;;;;5026288;28;20318;-69
2021/04/21 00:40:01;;;;;;;;;;;5.40;96.50;;;;;;5025150;28;19928;-72
2021/04/21 00:42:38;;;;;;;;;;;5.30;96.40;;;;;;5017323;28;19917;-69
2021/04/21 00:45:16;;;;;;;;;;;5.30;96.40;;;;;;5023815;28;20341;-69
2021/04/21 00:48:00;;;;;;;;;;;5.30;96.50;;;;;;5009888;28;20020;-69
2021/04/21 00:50:46;;;;;;;;;;;5.30;96.50;;;;;;5014035;28;19922;-70
2021/04/21 00:53:16;;;;;;;;;;;5.30;96.50;;;;;;5010951;28;19961;-70
2021/04/21 00:55:41;;;;;;;;;;;5.30;96.40;;;;;;5019451;28;19913;-70
2021/04/21 00:58:19;;;;;;;;;;;5.20;96.30;;;;;;5018271;28;20017;-70
2021/04/21 01:00:45;;;;;;;;;;;5.10;96.40;;;;;;4999509;28;21618;-68
2021/04/21 01:03:15;;;;;;;;;;;5.20;96.40;;;;;;5018069;28;19917;-68
2021/04/21 01:05:46;;;;;;;;;;;5.10;96.40;;;;;;5029912;28;19917;-72
2021/04/21 01:08:13;;;;;;;;;;;5.00;96.30;;;;;;5016724;28;19914;-69
2021/04/21 01:11:02;;;;;;;;;;;5.00;96.50;;;;;;5014160;28;19918;-70
2021/04/21 01:13:29;;;;;;;;;;;5.10;96.40;;;;;;5008316;28;19922;-70
2021/04/21 01:15:56;;;;;;;;;;;5.00;96.30;;;;;;5023240;28;19918;-69
2021/04/21 01:18:22;;;;;;;;;;;5.00;96.50;;;;;;5016617;28;20215;-69
2021/04/21 01:20:55;;;;;;;;;;;4.90;96.30;;;;;;5035132;28;19921;-69
2021/04/21 01:23:39;;;;;;;;;;;5.00;96.50;;;;;;5025716;28;19941;-70
2021/04/21 01:26:07;;;;;;;;;;;4.90;96.30;;;;;;5015566;28;20219;-70
2021/04/21 01:28:38;;;;;;;;;;;4.90;96.30;;;;;;5001904;28;19928;-70
2021/04/21 01:31:03;;;;;;;;;;;4.80;96.60;;;;;;5021505;28;19928;-69
2021/04/21 01:33:30;;;;;;;;;;;4.70;96.70;;;;;;5021059;28;20230;-70
2021/04/21 01:35:59;;;;;;;;;;;4.50;96.20;;;;;;5025029;28;19913;-70
2021/04/21 01:38:25;;;;;;;;;;;4.60;96.20;;;;;;5004785;28;20473;-70
2021/04/21 01:40:51;;;;;;;;;;;4.80;96.40;;;;;;5024907;28;19918;-69
2021/04/21 01:43:36;;;;;;;;;;;4.90;96.60;;;;;;5021882;28;19925;-69
2021/04/21 01:46:02;;;;;;;;;;;4.90;96.70;;;;;;5016716;28;19964;-70
2021/04/21 01:48:30;;;;;;;;;;;5.00;96.70;;;;;;5019240;28;19922;-70
2021/04/21 01:50:58;;;;;;;;;;;5.00;96.50;;;;;;5015644;28;19924;-69
2021/04/21 01:53:24;;;;;;;;;;;5.00;96.70;;;;;;5016296;28;21330;-70
2021/04/21 01:55:59;;;;;;;;;;;5.00;96.60;;;;;;5016013;28;20019;-70
2021/04/21 01:58:25;;;;;;;;;;;5.00;96.50;;;;;;5029172;28;19921;-70
2021/04/21 02:00:55;;;;;;;;;;;5.00;96.60;;;;;;5016936;28;19932;-68
2021/04/21 02:03:53;;;;;;;;;;;5.00;96.70;;;;;;5017046;28;19921;-69
2021/04/21 02:06:27;;;;;;;;;;;4.70;96.80;;;;;;5002951;28;19921;-70
2021/04/21 02:09:08;;;;;;;;;;;4.30;96.90;;;;;;5013208;28;19975;-69
2021/04/21 02:11:36;;;;;;;;;;;3.80;96.50;;;;;;5010589;28;19921;-70
2021/04/21 02:14:14;;;;;;;;;;;3.60;96.20;;;;;;5005253;28;19921;-70
2021/04/21 02:16:46;;;;;;;;;;;3.50;96.40;;;;;;5015608;28;19960;-70
2021/04/21 02:19:29;;;;;;;;;;;3.20;96.40;;;;;;5016033;28;19965;-70
2021/04/21 02:22:29;;;;;;;;;;;3.10;96.00;;;;;;5007341;28;19927;-70
2021/04/21 02:25:06;;;;;;;;;;;3.00;96.70;;;;;;4986775;28;19913;-70
2021/04/21 02:27:51;;;;;;;;;;;2.80;96.40;;;;;;5012602;28;20389;-69
2021/04/21 02:30:22;;;;;;;;;;;2.70;96.10;;;;;;5019272;28;20103;-71
2021/04/21 02:33:11;;;;;;;;;;;2.70;96.20;;;;;;5006192;28;19975;-70
2021/04/21 02:35:45;;;;;;;;;;;2.60;96.20;;;;;;5010756;28;19917;-68
2021/04/21 02:38:14;;;;;;;;;;;2.60;95.70;;;;;;5016808;28;19921;-68
2021/04/21 02:41:00;;;;;;;;;;;2.90;95.30;;;;;;5017717;28;19925;-70
2021/04/21 02:43:44;;;;;;;;;;;3.30;95.90;;;;;;5026566;28;21556;-69
2021/04/21 02:46:10;;;;;;;;;;;3.60;96.10;;;;;;5022443;28;19918;-69
2021/04/21 02:48:42;;;;;;;;;;;3.70;96.50;;;;;;5021516;28;19920;-68
2021/04/21 02:51:10;;;;;;;;;;;3.60;96.50;;;;;;5016469;28;19921;-67
2021/04/21 02:53:44;;;;;;;;;;;3.50;96.40;;;;;;4995240;28;19921;-69
2021/04/21 02:56:16;;;;;;;;;;;3.60;96.20;;;;;;5011048;28;21016;-70
2021/04/21 02:59:00;;;;;;;;;;;3.60;96.60;;;;;;5025091;28;20027;-70
2021/04/21 03:01:38;;;;;;;;;;;3.50;96.60;;;;;;5019839;28;19918;-69
2021/04/21 03:04:10;;;;;;;;;;;3.40;96.20;;;;;;5016707;28;19975;-70
2021/04/21 03:06:38;;;;;;;;;;;3.50;96.60;;;;;;5017382;28;20326;-70
2021/04/21 03:09:11;;;;;;;;;;;3.50;96.50;;;;;;5012577;28;19921;-70
2021/04/21 03:11:37;;;;;;;;;;;3.50;96.60;;;;;;5020918;28;19913;-70
2021/04/21 03:14:05;;;;;;;;;;;3.40;96.70;;;;;;5015062;28;20013;-70
2021/04/21 03:16:38;;;;;;;;;;;3.30;96.60;;;;;;5021157;28;20195;-70
2021/04/21 03:19:06;;;;;;;;;;;3.30;96.80;;;;;;5023637;28;20225;-70
2021/04/21 03:21:34;;;;;;;;;;;3.30;96.50;;;;;;5015861;28;19929;-70
2021/04/21 03:24:05;;;;;;;;;;;3.20;96.70;;;;;;5020813;28;19959;-71
2021/04/21 03:26:31;;;;;;;;;;;3.10;96.80;;;;;;5022731;28;19936;-70
2021/04/21 03:28:58;;;;;;;;;;;3.10;96.60;;;;;;5012376;28;19924;-70
2021/04/21 03:31:25;;;;;;;;;;;3.10;96.40;;;;;;5011789;28;19922;-70
2021/04/21 03:33:53;;;;;;;;;;;3.20;96.80;;;;;;5013224;28;20008;-69
2021/04/21 03:36:19;;;;;;;;;;;3.10;96.80;;;;;;5012338;28;19931;-70
2021/04/21 03:38:48;;;;;;;;;;;3.00;96.90;;;;;;5013552;28;20320;-70
2021/04/21 03:41:14;;;;;;;;;;;2.90;96.70;;;;;;5010536;28;19928;-70
2021/04/21 03:43:40;;;;;;;;;;;3.10;96.70;;;;;;5019249;28;19922;-70
2021/04/21 03:46:06;;;;;;;;;;;3.20;96.80;;;;;;5021741;28;19925;-70
2021/04/21 03:48:32;;;;;;;;;;;3.30;96.90;;;;;;5013348;28;19920;-70
2021/04/21 03:50:58;;;;;;;;;;;3.20;97.10;;;;;;5027804;28;19927;-70
2021/04/21 03:53:26;;;;;;;;;;;3.00;97.00;;;;;;5016718;28;20313;-70
2021/04/21 03:55:55;;;;;;;;;;;3.00;96.90;;;;;;5015889;28;20008;-70
2021/04/21 03:58:21;;;;;;;;;;;2.90;96.80;;;;;;5008972;28;19917;-70
2021/04/21 04:00:51;;;;;;;;;;;2.90;97.00;;;;;;4997596;28;20271;-70
2021/04/21 04:03:19;;;;;;;;;;;2.80;97.00;;;;;;5010647;28;20285;-70
2021/04/21 04:05:45;;;;;;;;;;;2.60;96.90;;;;;;5029941;28;20039;-70
2021/04/21 04:08:11;;;;;;;;;;;2.60;96.40;;;;;;5014470;28;20282;-70
2021/04/21 04:10:50;;;;;;;;;;;2.70;96.90;;;;;;5021031;28;19992;-70
2021/04/21 04:13:16;;;;;;;;;;;2.70;96.80;;;;;;5020847;28;19941;-69
2021/04/21 04:15:43;;;;;;;;;;;2.70;96.80;;;;;;5012957;28;19921;-70
2021/04/21 04:18:11;;;;;;;;;;;2.80;96.90;;;;;;5013565;28;19937;-69
2021/04/21 04:20:41;;;;;;;;;;;2.60;96.90;;;;;;5019231;28;19929;-70
2021/04/21 04:23:09;;;;;;;;;;;2.50;97.00;;;;;;4992216;28;19920;-70
2021/04/21 04:25:39;;;;;;;;;;;2.40;97.00;;;;;;5013608;28;19988;-71
2021/04/21 04:28:07;;;;;;;;;;;2.40;96.80;;;;;;5016654;28;19984;-70
2021/04/21 04:30:33;;;;;;;;;;;2.40;96.80;;;;;;5027659;28;20063;-71
2021/04/21 04:32:59;;;;;;;;;;;2.50;96.70;;;;;;5002410;28;20282;-70
2021/04/21 04:35:24;;;;;;;;;;;2.70;96.90;;;;;;5027510;28;19920;-71
2021/04/21 04:37:56;;;;;;;;;;;2.80;97.20;;;;;;5017052;28;19918;-71
2021/04/21 04:40:22;;;;;;;;;;;2.70;97.10;;;;;;5019905;28;19921;-71
2021/04/21 04:42:48;;;;;;;;;;;2.50;97.10;;;;;;5025816;28;19920;-71
2021/04/21 04:45:14;;;;;;;;;;;2.30;97.10;;;;;;5023275;28;19918;-71
2021/04/21 04:47:43;;;;;;;;;;;2.10;97.00;;;;;;5022592;28;20352;-70
2021/04/21 04:50:09;;;;;;;;;;;2.00;96.90;;;;;;5006239;28;19923;-71
2021/04/21 04:52:38;;;;;;;;;;;2.00;96.90;;;;;;5004742;28;20537;-70
2021/04/21 04:55:04;;;;;;;;;;;2.00;96.90;;;;;;5022397;28;19935;-70
2021/04/21 04:57:30;;;;;;;;;;;2.10;96.60;;;;;;5022877;28;20020;-71
2021/04/21 05:00:00;;;;;;;;;;;2.30;96.40;;;;;;5029956;28;20393;-68
2021/04/21 05:02:26;;;;;;;;;;;2.50;96.70;;;;;;5016475;28;19928;-69
2021/04/21 05:04:56;;;;;;;;;;;2.70;96.80;;;;;;5018090;28;20124;-69
2021/04/21 05:07:29;;;;;;;;;;;2.70;97.10;;;;;;5019470;28;19964;-69
2021/04/21 05:09:57;;;;;;;;;;;2.70;97.10;;;;;;5019643;28;20005;-69
2021/04/21 05:12:24;;;;;;;;;;;2.60;97.10;;;;;;5020190;28;19970;-69
2021/04/21 05:14:52;;;;;;;;;;;2.60;97.00;;;;;;5036430;28;19920;-70
2021/04/21 05:17:24;;;;;;;;;;;2.70;96.90;;;;;;5042137;28;19955;-69
2021/04/21 05:20:08;;;;;;;;;;;2.80;97.10;;;;;;5036610;28;20298;-69
2021/04/21 05:22:37;;;;;;;;;;;2.90;97.20;;;;;;5023077;28;19924;-69
2021/04/21 05:25:05;;;;;;;;;;;3.10;97.20;;;;;;5037134;28;19988;-69
2021/04/21 05:27:49;;;;;;;;;;;3.20;97.20;;;;;;5042000;28;19916;-68
2021/04/21 05:30:14;;;;;;;;;;;3.40;97.40;;;;;;5037972;28;20265;-70
2021/04/21 05:32:58;;;;;;;;;;;3.60;97.50;;;;;;5021916;28;19953;-69
2021/04/21 05:35:24;;;;;;;;;;;3.70;97.60;;;;;;5039698;28;19917;-69
2021/04/21 05:37:59;;;;;;;;;;;3.80;97.40;;;;;;5023245;28;19913;-68
2021/04/21 05:40:33;;;;;;;;;;;3.90;97.50;;;;;;5023314;28;19917;-69
2021/04/21 05:43:11;;;;;;;;;;;4.00;97.50;;;;;;5041605;28;19916;-69
2021/04/21 05:45:39;;;;;;;;;;;4.10;97.30;;;;;;5041819;28;19913;-69
2021/04/21 05:48:07;;;;;;;;;;;4.20;97.40;;;;;;5022256;28;19921;-68
2021/04/21 05:50:33;;;;;;;;;;;4.30;97.60;;;;;;5037581;28;19913;-69
2021/04/21 05:53:07;;;;;;;;;;;4.40;97.40;;;;;;5037644;28;19909;-69
2021/04/21 05:56:05;;;;;;;;;;;4.60;97.40;;;;;;5038061;28;20028;-69
2021/04/21 05:58:31;;;;;;;;;;;4.80;97.50;;;;;;5005196;28;19924;-69
2021/04/21 06:01:15;;;;;;;;;;;5.10;97.60;;;;;;5032079;28;19917;-69
2021/04/21 06:03:43;;;;;;;;;;;5.30;97.60;;;;;;5018963;28;20007;-69
2021/04/21 06:06:09;;;;;;;;;;;5.50;97.90;;;;;;5034087;28;19968;-68
2021/04/21 06:08:34;;;;;;;;;;;5.60;98.00;;;;;;5037109;28;19909;-68
2021/04/21 06:11:00;;;;;;;;;;;5.60;97.50;;;;;;5030520;28;19921;-69
2021/04/21 06:13:32;;;;;;;;;;;5.70;97.40;;;;;;5038206;28;19909;-69
2021/04/21 06:15:58;;;;;;;;;;;5.80;97.60;;;;;;5036712;28;19932;-69
2021/04/21 06:18:26;;;;;;;;;;;6.00;97.70;;;;;;5020722;28;20329;-69
2021/04/21 06:20:53;;;;;;;;;;;6.20;97.20;;;;;;5036694;28;20300;-69
2021/04/21 06:23:19;;;;;;;;;;;6.40;97.10;;;;;;5036561;28;19913;-68
2021/04/21 06:26:04;;;;;;;;;;;6.50;96.70;;;;;;5037312;28;19913;-68
2021/04/21 06:28:30;;;;;;;;;;;6.70;96.60;;;;;;5037442;28;20298;-69
2021/04/21 06:31:01;;;;;;;;;;;6.90;96.10;;;;;;5029887;28;19959;-68
2021/04/21 06:33:31;;;;;;;;;;;7.00;95.60;;;;;;5020349;28;19913;-68
2021/04/21 06:35:56;;;;;;;;;;;7.10;95.60;;;;;;5037366;28;19948;-69
2021/04/21 06:38:28;;;;;;;;;;;7.20;95.20;;;;;;5036554;28;19964;-69
2021/04/21 06:40:54;;;;;;;;;;;7.30;94.80;;;;;;5030435;28;19928;-68
2021/04/21 06:43:26;;;;;;;;;;;7.50;94.60;;;;;;5037150;28;19913;-69
2021/04/21 06:45:52;;;;;;;;;;;7.70;93.90;;;;;;5037428;28;19917;-68
2021/04/21 06:48:26;;;;;;;;;;;7.80;93.30;;;;;;5037461;28;20310;-68
2021/04/21 06:50:53;;;;;;;;;;;8.00;92.00;;;;;;5033436;28;19921;-69
2021/04/21 06:53:26;;;;;;;;;;;8.10;91.50;;;;;;5031484;28;20303;-69
2021/04/21 06:55:54;;;;;;;;;;;8.20;90.70;;;;;;5036725;28;20007;-68
2021/04/21 06:58:22;;;;;;;;;;;8.30;90.90;;;;;;5037531;28;20321;-68
2021/04/21 07:00:48;;;;;;;;;;;8.50;90.40;;;;;;5035085;28;19924;-68
2021/04/21 07:03:17;;;;;;;;;;;8.60;90.20;;;;;;5037428;28;19913;-68
2021/04/21 07:05:43;;;;;;;;;;;8.70;89.30;;;;;;5032410;28;20221;-69
2021/04/21 07:08:14;;;;;;;;;;;8.90;89.00;;;;;;5036033;28;20063;-68
2021/04/21 07:10:49;;;;;;;;;;;8.90;87.70;;;;;;5036936;28;19928;-67
2021/04/21 07:13:18;;;;;;;;;;;9.00;87.80;;;;;;5037171;28;20035;-66
2021/04/21 07:15:44;;;;;;;;;;;9.20;87.20;;;;;;5033106;28;20305;-67
2021/04/21 07:18:14;;;;;;;;;;;9.30;87.10;;;;;;5036957;28;19920;-69
2021/04/21 07:20:40;;;;;;;;;;;9.50;86.80;;;;;;5036769;28;19917;-69
2021/04/21 07:23:06;;;;;;;;;;;9.60;87.60;;;;;;5035600;28;20008;-68
2021/04/21 07:25:32;;;;;;;;;;;9.50;87.20;;;;;;5035878;28;20276;-68
2021/04/21 07:27:57;;;;;;;;;;;9.60;88.10;;;;;;5035494;28;19913;-68
2021/04/21 07:30:24;;;;;;;;;;;9.80;88.20;;;;;;5034611;28;19913;-69
2021/04/21 07:32:50;;;;;;;;;;;9.90;87.80;;;;;;5030411;28;19959;-68
2021/04/21 07:35:16;;;;;;;;;;;10.10;88.30;;;;;;5036802;28;19909;-68
2021/04/21 07:37:43;;;;;;;;;;;10.30;87.20;;;;;;5035185;28;19917;-69
2021/04/21 07:40:21;;;;;;;;;;;10.30;87.10;;;;;;5021160;28;20279;-68
2021/04/21 07:42:47;;;;;;;;;;;10.30;86.60;;;;;;5028963;28;20261;-68
2021/04/21 07:45:13;;;;;;;;;;;10.40;87.20;;;;;;5034934;28;20005;-68
2021/04/21 07:47:38;;;;;;;;;;;10.50;86.40;;;;;;5028306;28;19920;-69
2021/04/21 07:50:04;;;;;;;;;;;10.70;86.00;;;;;;5036537;28;19968;-69
2021/04/21 07:52:31;;;;;;;;;;;11.30;85.10;;;;;;5034045;28;19920;-69
2021/04/21 07:55:12;;;;;;;;;;;12.50;81.80;;;;;;5031418;28;20317;-69
2021/04/21 07:57:38;;;;;;;;;;;13.40;79.00;;;;;;5036014;28;19923;-69
2021/04/21 08:00:08;;;;;;;;;;;14.60;74.70;;;;;;5035809;28;19921;-69
2021/04/21 08:02:34;;;;;;;;;;;14.90;72.80;;;;;;5035625;28;20313;-69
2021/04/21 08:05:10;;;;;;;;;;;15.20;72.40;;;;;;5014622;28;19909;-69
2021/04/21 08:07:35;;;;;;;;;;;15.30;71.00;;;;;;5034303;28;19917;-67
2021/04/21 08:10:03;;;;;;;;;;;15.20;71.60;;;;;;5035949;28;19924;-68
2021/04/21 08:12:29;;;;;;;;;;;15.10;71.60;;;;;;5035170;28;20004;-68
2021/04/21 08:15:00;;;;;;;;;;;15.10;71.60;;;;;;5036135;28;19916;-67
2021/04/21 08:17:25;;;;;;;;;;;15.60;71.50;;;;;;5035797;28;20024;-66
2021/04/21 08:19:56;;;;;;;;;;;16.50;68.70;;;;;;5035958;28;20006;-67
2021/04/21 08:22:28;;;;;;;;;;;17.10;68.50;;;;;;5033870;28;19928;-68
2021/04/21 08:24:55;;;;;;;;;;;17.20;67.30;;;;;;5035562;28;19917;-67
2021/04/21 08:27:21;;;;;;;;;;;17.00;67.20;;;;;;5035708;28;19919;-68
2021/04/21 08:29:47;;;;;;;;;;;17.50;67.10;;;;;;5017679;28;20052;-67
2021/04/21 08:32:16;;;;;;;;;;;18.00;65.20;;;;;;5035942;28;20000;-68
2021/04/21 08:34:42;;;;;;;;;;;18.00;64.90;;;;;;5035397;28;20334;-68
2021/04/21 08:37:09;;;;;;;;;;;18.20;64.60;;;;;;5034903;28;19909;-68
2021/04/21 08:39:35;;;;;;;;;;;18.10;64.20;;;;;;5035739;28;19909;-68
2021/04/21 08:42:00;;;;;;;;;;;18.50;61.90;;;;;;5034643;28;19967;-68
2021/04/21 08:44:30;;;;;;;;;;;19.00;61.40;;;;;;5034883;28;20326;-67
2021/04/21 08:46:56;;;;;;;;;;;19.20;60.00;;;;;;5034759;28;19988;-68
2021/04/21 08:49:23;;;;;;;;;;;19.30;59.40;;;;;;5035745;28;20005;-67
2021/04/21 08:51:50;;;;;;;;;;;19.20;59.70;;;;;;5034391;28;19917;-67
2021/04/21 08:54:15;;;;;;;;;;;18.90;59.50;;;;;;5035471;28;19925;-68
2021/04/21 08:56:42;;;;;;;;;;;18.70;61.10;;;;;;5035788;28;19962;-68
2021/04/21 08:59:12;;;;;;;;;;;18.80;61.10;;;;;;5028324;28;19913;-68
2021/04/21 09:01:38;;;;;;;;;;;18.80;61.30;;;;;;5034901;28;19921;-68
2021/04/21 09:04:04;;;;;;;;;;;19.30;59.40;;;;;;5032209;28;19924;-68
2021/04/21 09:06:29;;;;;;;;;;;19.50;59.50;;;;;;5035548;28;19913;-68
2021/04/21 09:08:56;;;;;;;;;;;20.20;58.10;;;;;;5012672;28;19913;-68
2021/04/21 09:11:22;;;;;;;;;;;20.70;57.20;;;;;;5031984;28;19924;-68
2021/04/21 09:13:48;;;;;;;;;;;21.00;56.50;;;;;;5034989;28;20190;-67
2021/04/21 09:16:14;;;;;;;;;;;20.70;56.70;;;;;;5027797;28;19920;-68
2021/04/21 09:18:40;;;;;;;;;;;20.80;55.60;;;;;;5035336;28;19924;-68
2021/04/21 09:21:15;;;;;;;;;;;20.40;56.30;;;;;;5031080;28;19917;-68
2021/04/21 09:23:41;;;;;;;;;;;20.00;56.50;;;;;;5036351;28;20317;-68
2021/04/21 09:26:16;;;;;;;;;;;19.50;57.60;;;;;;5037564;28;19920;-68
2021/04/21 09:28:44;;;;;;;;;;;19.40;58.60;;;;;;5039112;28;19916;-67
2021/04/21 09:31:16;;;;;;;;;;;19.40;58.20;;;;;;5037125;28;19964;-68
2021/04/21 09:33:42;;;;;;;;;;;19.40;58.00;;;;;;5038753;28;19920;-68
2021/04/21 09:36:07;;;;;;;;;;;19.30;58.50;;;;;;5037260;28;19913;-68
2021/04/21 09:38:33;;;;;;;;;;;19.70;57.50;;;;;;5037432;28;19924;-68
2021/04/21 09:41:01;;;;;;;;;;;20.70;54.70;;;;;;5021065;28;20011;-68
2021/04/21 09:43:33;;;;;;;;;;;21.20;53.90;;;;;;5035722;28;20313;-68
2021/04/21 09:46:00;;;;;;;;;;;21.10;50.70;;;;;;5038792;28;20222;-68
2021/04/21 09:48:34;;;;;;;;;;;20.90;53.10;;;;;;5038774;28;19916;-69
2021/04/21 09:51:05;;;;;;;;;;;21.10;53.40;;;;;;5038707;28;19909;-68
2021/04/21 09:53:33;;;;;;;;;;;20.60;52.70;;;;;;5033705;28;19924;-68
2021/04/21 09:55:59;;;;;;;;;;;20.30;51.70;;;;;;5021089;28;19909;-67
2021/04/21 09:58:31;;;;;;;;;;;20.40;52.30;;;;;;5038387;28;19917;-67
2021/04/21 10:00:57;;;;;;;;;;;20.50;52.30;;;;;;5035347;28;20212;-67
2021/04/21 10:03:23;;;;;;;;;;;20.90;52.60;;;;;;5037979;28;19936;-66
2021/04/21 10:05:48;;;;;;;;;;;20.20;53.30;;;;;;5036711;28;19913;-65
2021/04/21 10:08:14;;;;;;;;;;;20.20;53.30;;;;;;5036007;28;19913;-65
2021/04/21 10:10:43;;;;;;;;;;;20.50;53.40;;;;;;5037061;28;19913;-66
2021/04/21 10:13:34;;;;;;;;;;;20.90;51.70;;;;;;5037337;28;19931;-68
2021/04/21 10:16:00;;;;;;;;;;;21.30;51.20;;;;;;5009217;28;20290;-67
2021/04/21 10:18:26;;;;;;;;;;;21.20;52.20;;;;;;5037877;28;20012;-67
2021/04/21 10:20:51;;;;;;;;;;;20.80;51.60;;;;;;5038259;28;19924;-68
2021/04/21 10:23:18;;;;;;;;;;;20.50;52.20;;;;;;5036597;28;20008;-67
2021/04/21 10:25:43;;;;;;;;;;;20.70;51.40;;;;;;5038035;28;19909;-68
2021/04/21 10:28:09;;;;;;;;;;;21.40;51.10;;;;;;5038097;28;20298;-68
2021/04/21 10:30:37;;;;;;;;;;;21.90;50.40;;;;;;5037659;28;19917;-68
2021/04/21 10:33:06;;;;;;;;;;;21.50;50.60;;;;;;5037987;28;19909;-67
2021/04/21 10:35:32;;;;;;;;;;;21.20;51.20;;;;;;5037071;28;19913;-68
2021/04/21 10:37:57;;;;;;;;;;;20.80;51.00;;;;;;5036013;28;19913;-67
2021/04/21 10:40:25;;;;;;;;;;;20.30;51.20;;;;;;5037773;28;19909;-67
2021/04/21 10:42:53;;;;;;;;;;;20.70;50.70;;;;;;5035783;28;19922;-68
2021/04/21 10:45:20;;;;;;;;;;;20.70;51.50;;;;;;5037187;28;19917;-68
2021/04/21 10:47:47;;;;;;;;;;;20.90;50.50;;;;;;5036622;28;19920;-67
2021/04/21 10:50:13;;;;;;;;;;;21.20;50.00;;;;;;5037462;28;19931;-67
2021/04/21 10:52:40;;;;;;;;;;;21.80;47.30;;;;;;5035624;28;20309;-68
2021/04/21 10:55:09;;;;;;;;;;;21.30;49.00;;;;;;5037252;28;20230;-69
2021/04/21 10:57:35;;;;;;;;;;;20.50;48.60;;;;;;5036494;28;20000;-68
2021/04/21 11:00:07;;;;;;;;;;;20.40;51.60;;;;;;5036906;28;19988;-68
2021/04/21 11:02:45;;;;;;;;;;;20.10;50.40;;;;;;5035720;28;19928;-67
2021/04/21 11:05:18;;;;;;;;;;;19.60;52.30;;;;;;5028209;28;19913;-68
2021/04/21 11:07:58;;;;;;;;;;;20.40;51.70;;;;;;5029814;28;19913;-68
2021/04/21 11:10:47;;;;;;;;;;;20.70;49.90;;;;;;5036876;28;20195;-68
2021/04/21 11:13:16;;;;;;;;;;;20.60;51.30;;;;;;5029715;28;19957;-67
2021/04/21 11:15:45;;;;;;;;;;;20.40;50.60;;;;;;5035660;28;19917;-68
2021/04/21 11:18:12;;;;;;;;;;;20.50;50.10;;;;;;5020061;28;19913;-68
2021/04/21 11:20:46;;;;;;;;;;;20.60;49.20;;;;;;5036457;28;19935;-67
2021/04/21 11:23:30;;;;;;;;;;;20.60;49.50;;;;;;5034277;28;20333;-68
2021/04/21 11:26:33;;;;;;;;;;;20.40;49.40;;;;;;5034355;28;19913;-68
2021/04/21 11:29:00;;;;;;;;;;;20.20;49.70;;;;;;5022492;28;19921;-67
2021/04/21 11:34:12;;;;;;;;;;;20.20;49.20;;;;;;5039208;28;20382;-67
2021/04/21 11:36:45;;;;;;;;;;;20.60;48.90;;;;;;5035331;28;19913;-65
2021/04/21 11:39:11;;;;;;;;;;;21.10;49.50;;;;;;5029590;28;19920;-66
2021/04/21 11:41:45;;;;;;;;;;;21.60;46.90;;;;;;5026558;28;19924;-66
2021/04/21 11:44:30;;;;;;;;;;;21.60;45.30;;;;;;5034265;28;20437;-68
2021/04/21 11:46:58;;;;;;;;;;;21.60;45.50;;;;;;5022400;28;19921;-67
2021/04/21 11:49:56;;;;;;;;;;;21.50;45.50;;;;;;5031448;28;19913;-66
2021/04/21 11:52:40;;;;;;;;;;;20.70;47.20;;;;;;5033103;28;19913;-68
2021/04/21 11:55:07;;;;;;;;;;;19.50;47.10;;;;;;5030303;28;19929;-66
2021/04/21 11:57:34;;;;;;;;;;;18.80;47.70;;;;;;5034746;28;19924;-68
2021/04/21 11:59:59;;;;;;;;;;;18.80;47.70;;;;;;5035475;28;19996;-67
2021/04/21 12:02:26;;;;;;;;;;;18.70;49.10;;;;;;5034846;28;19921;-67
2021/04/21 12:04:52;;;;;;;;;;;18.70;49.30;;;;;;5035456;28;20213;-67
2021/04/21 12:07:21;;;;;;;;;;;18.90;49.10;;;;;;5034675;28;19929;-67
2021/04/21 12:09:47;;;;;;;;;;;18.70;48.80;;;;;;5035988;28;19913;-67
2021/04/21 12:12:21;;;;;;;;;;;18.80;47.60;;;;;;5035725;28;19920;-67
2021/04/21 12:14:59;;;;;;;;;;;18.70;47.40;;;;;;5034282;28;19928;-67
2021/04/21 12:17:25;;;;;;;;;;;19.50;48.20;;;;;;5024945;28;19925;-67
2021/04/21 12:19:51;;;;;;;;;;;19.80;46.40;;;;;;5026126;28;19914;-68
2021/04/21 12:22:18;;;;;;;;;;;19.30;48.00;;;;;;5023535;28;20348;-67
2021/04/21 12:24:43;;;;;;;;;;;19.80;48.00;;;;;;5026615;28;19951;-67
2021/04/21 12:27:25;;;;;;;;;;;20.00;46.40;;;;;;5023938;28;19913;-67
2021/04/21 12:29:51;;;;;;;;;;;19.20;46.60;;;;;;5025763;28;19933;-67
2021/04/21 12:32:25;;;;;;;;;;;18.20;45.90;;;;;;5024058;28;20330;-67
2021/04/21 12:34:51;;;;;;;;;;;17.80;47.60;;;;;;5027208;28;19921;-68
2021/04/21 12:37:20;;;;;;;;;;;17.60;48.40;;;;;;5024258;28;19925;-67
2021/04/21 12:39:46;;;;;;;;;;;17.50;48.20;;;;;;5026273;28;19925;-67
2021/04/21 12:42:15;;;;;;;;;;;17.40;48.60;;;;;;5025664;28;19917;-67
2021/04/21 12:44:40;;;;;;;;;;;17.40;47.90;;;;;;5025232;28;19921;-67
2021/04/21 12:47:08;;;;;;;;;;;17.60;48.60;;;;;;5024720;28;19924;-67
2021/04/21 12:49:33;;;;;;;;;;;18.00;49.20;;;;;;5008351;28;20007;-67
2021/04/21 12:52:00;;;;;;;;;;;18.20;48.30;;;;;;5022791;28;20064;-67
2021/04/21 12:54:45;;;;;;;;;;;18.00;47.20;;;;;;5024325;28;19929;-67
2021/04/21 12:57:11;;;;;;;;;;;17.90;48.90;;;;;;5029034;28;19913;-65
2021/04/21 12:59:57;;;;;;;;;;;18.20;48.90;;;;;;5009226;28;19913;-64
2021/04/21 13:02:42;;;;;;;;;;;18.50;49.70;;;;;;5032244;28;19921;-65
2021/04/21 13:05:08;;;;;;;;;;;18.10;47.70;;;;;;5033607;28;19940;-65
2021/04/21 13:07:34;;;;;;;;;;;18.10;47.20;;;;;;5026679;28;20286;-67
2021/04/21 13:10:06;;;;;;;;;;;17.70;49.50;;;;;;5027491;28;20319;-67
2021/04/21 13:12:31;;;;;;;;;;;18.00;50.30;;;;;;5035116;28;19917;-66
2021/04/21 13:15:07;;;;;;;;;;;18.90;51.20;;;;;;5031391;28;19913;-67
2021/04/21 13:17:44;;;;;;;;;;;19.50;52.00;;;;;;5028633;28;19989;-68
2021/04/21 13:20:10;;;;;;;;;;;18.00;53.30;;;;;;5029375;28;19922;-66
2021/04/21 13:22:35;;;;;;;;;;;17.30;54.50;;;;;;5029041;28;19917;-64
2021/04/21 13:25:01;;;;;;;;;;;17.20;56.40;;;;;;5038756;28;19917;-66
2021/04/21 13:27:28;;;;;;;;;;;17.00;57.00;;;;;;5036301;28;19920;-65
2021/04/21 13:29:58;;;;;;;;;;;16.80;56.80;;;;;;5027760;28;19978;-67
2021/04/21 13:32:24;;;;;;;;;;;16.70;57.90;;;;;;5027788;28;19917;-67
2021/04/21 13:34:49;;;;;;;;;;;16.80;57.90;;;;;;5029387;28;19928;-67
2021/04/21 13:37:15;;;;;;;;;;;17.80;58.30;;;;;;5026844;28;19944;-67
2021/04/21 13:39:40;;;;;;;;;;;19.10;57.30;;;;;;5028426;28;19922;-68
2021/04/21 13:42:06;;;;;;;;;;;20.30;52.90;;;;;;5027388;28;19925;-67
2021/04/21 13:44:31;;;;;;;;;;;20.70;51.50;;;;;;5027538;28;19959;-67
2021/04/21 13:46:57;;;;;;;;;;;21.00;54.50;;;;;;5028009;28;19917;-68
2021/04/21 13:49:24;;;;;;;;;;;21.80;51.10;;;;;;5032342;28;19917;-65
2021/04/21 13:51:51;;;;;;;;;;;21.90;50.80;;;;;;5036776;28;19917;-66
2021/04/21 13:54:17;;;;;;;;;;;21.90;50.00;;;;;;5028986;28;19932;-67
2021/04/21 13:56:43;;;;;;;;;;;20.90;48.70;;;;;;5018098;28;20234;-66
2021/04/21 13:59:11;;;;;;;;;;;19.30;51.50;;;;;;5023933;28;19921;-66
2021/04/21 14:01:37;;;;;;;;;;;18.40;52.30;;;;;;5016739;28;20622;-67
2021/04/21 14:04:03;;;;;;;;;;;17.90;54.10;;;;;;5018484;28;20355;-67
2021/04/21 14:06:29;;;;;;;;;;;17.60;54.80;;;;;;5023728;28;19917;-66
2021/04/21 14:08:55;;;;;;;;;;;17.40;55.20;;;;;;5013592;28;20330;-66
2021/04/21 14:11:21;;;;;;;;;;;17.10;53.60;;;;;;5017224;28;19921;-67
2021/04/21 14:13:46;;;;;;;;;;;16.80;53.80;;;;;;5019198;28;19917;-67
2021/04/21 14:16:12;;;;;;;;;;;17.00;52.70;;;;;;5021746;28;19913;-67
2021/04/21 14:18:38;;;;;;;;;;;17.10;53.20;;;;;;5016958;28;20515;-66
2021/04/21 14:21:04;;;;;;;;;;;17.00;54.90;;;;;;5032360;28;19913;-67
2021/04/21 14:23:30;;;;;;;;;;;16.50;57.10;;;;;;5037045;28;20298;-67
2021/04/21 14:25:56;;;;;;;;;;;16.30;58.50;;;;;;5020157;28;19913;-66
2021/04/21 14:28:27;;;;;;;;;;;16.40;58.70;;;;;;5021153;28;20400;-65
2021/04/21 14:30:56;;;;;;;;;;;16.30;59.10;;;;;;5021311;28;19992;-65
2021/04/21 14:33:22;;;;;;;;;;;16.30;58.60;;;;;;5025226;28;19914;-66
2021/04/21 14:35:50;;;;;;;;;;;16.50;57.90;;;;;;5021146;28;19920;-65
2021/04/21 14:38:23;;;;;;;;;;;16.50;57.60;;;;;;5023427;28;19944;-65
2021/04/21 14:40:50;;;;;;;;;;;16.60;57.10;;;;;;5036572;28;19913;-65